sensor_id;sensor_type;location;lat;lon;timestamp;P1;durP1;ratioP1;P2;durP2;ratioP2
71288;SDS011;59068;52.502;9.860;2022-08-25T00:02:02;4.77;;;4.20;;
71288;SDS011;59068;52.502;9.860;2022-08-25T00:04:32;5.53;;;4.53;;
71288;SDS011;59068;52.502;9.860;2022-08-25T00:06:59;6.17;;;5.00;;
71288;SDS011;59068;52.502;9.860;2022-08-25T00:09:26;5.03;;;4.63;;
71288;SDS011;59068;52.502;9.860;2022-08-25T00:11:53;5.57;;;4.97;;
71288;SDS011;59068;52.502;9.860;2022-08-25T00:14:20;6.63;;;5.00;;
71288;SDS011;59068;52.502;9.860;2022-08-25T00:16:51;5.30;;;4.80;;
71288;SDS011;59068;52.502;9.860;2022-08-25T00:19:20;5.20;;;4.70;;
71288;SDS011;59068;52.502;9.860;2022-08-25T00:21:48;5.73;;;4.73;;
71288;SDS011;59068;52.502;9.860;2022-08-25T00:24:15;5.23;;;4.73;;
71288;SDS011;59068;52.502;9.860;2022-08-25T00:26:43;5.60;;;4.67;;
71288;SDS011;59068;52.502;9.860;2022-08-25T00:29:11;5.10;;;4.60;;
71288;SDS011;59068;52.502;9.860;2022-08-25T00:31:38;4.97;;;4.57;;
71288;SDS011;59068;52.502;9.860;2022-08-25T00:34:05;5.53;;;5.03;;
71288;SDS011;59068;52.502;9.860;2022-08-25T00:36:41;5.83;;;4.30;;
71288;SDS011;59068;52.502;9.860;2022-08-25T00:39:09;5.93;;;4.80;;
71288;SDS011;59068;52.502;9.860;2022-08-25T00:41:37;5.50;;;4.93;;
71288;SDS011;59068;52.502;9.860;2022-08-25T00:44:06;5.73;;;4.67;;
71288;SDS011;59068;52.502;9.860;2022-08-25T00:46:34;5.40;;;4.90;;
71288;SDS011;59068;52.502;9.860;2022-08-25T00:49:07;6.57;;;5.50;;
71288;SDS011;59068;52.502;9.860;2022-08-25T00:51:44;5.97;;;5.07;;
71288;SDS011;59068;52.502;9.860;2022-08-25T00:54:23;5.93;;;4.73;;
71288;SDS011;59068;52.502;9.860;2022-08-25T00:56:52;5.80;;;5.23;;
71288;SDS011;59068;52.502;9.860;2022-08-25T00:59:23;5.83;;;5.23;;
71288;SDS011;59068;52.502;9.860;2022-08-25T01:01:51;6.13;;;5.13;;
71288;SDS011;59068;52.502;9.860;2022-08-25T01:04:19;6.83;;;5.40;;
71288;SDS011;59068;52.502;9.860;2022-08-25T01:06:45;6.07;;;5.47;;
71288;SDS011;59068;52.502;9.860;2022-08-25T01:09:13;5.73;;;5.30;;
71288;SDS011;59068;52.502;9.860;2022-08-25T01:11:40;6.50;;;5.50;;
71288;SDS011;59068;52.502;9.860;2022-08-25T01:14:07;6.23;;;5.63;;
71288;SDS011;59068;52.502;9.860;2022-08-25T01:16:35;6.23;;;5.53;;
71288;SDS011;59068;52.502;9.860;2022-08-25T01:19:03;6.27;;;5.70;;
71288;SDS011;59068;52.502;9.860;2022-08-25T01:21:35;6.73;;;6.00;;
71288;SDS011;59068;52.502;9.860;2022-08-25T01:24:04;6.30;;;5.70;;
71288;SDS011;59068;52.502;9.860;2022-08-25T01:26:32;6.50;;;5.77;;
71288;SDS011;59068;52.502;9.860;2022-08-25T01:28:59;6.03;;;5.43;;
71288;SDS011;59068;52.502;9.860;2022-08-25T01:31:45;6.60;;;6.00;;
71288;SDS011;59068;52.502;9.860;2022-08-25T01:34:12;7.30;;;6.63;;
71288;SDS011;59068;52.502;9.860;2022-08-25T01:36:40;6.87;;;6.27;;
71288;SDS011;59068;52.502;9.860;2022-08-25T01:39:08;6.77;;;5.57;;
71288;SDS011;59068;52.502;9.860;2022-08-25T01:41:49;7.43;;;6.73;;
71288;SDS011;59068;52.502;9.860;2022-08-25T01:44:35;6.73;;;6.10;;
71288;SDS011;59068;52.502;9.860;2022-08-25T01:47:03;7.70;;;6.13;;
71288;SDS011;59068;52.502;9.860;2022-08-25T01:49:30;7.13;;;6.53;;
71288;SDS011;59068;52.502;9.860;2022-08-25T01:52:00;7.23;;;6.57;;
71288;SDS011;59068;52.502;9.860;2022-08-25T01:54:31;7.07;;;6.37;;
71288;SDS011;59068;52.502;9.860;2022-08-25T01:56:56;7.87;;;7.00;;
71288;SDS011;59068;52.502;9.860;2022-08-25T01:59:23;7.30;;;6.70;;
71288;SDS011;59068;52.502;9.860;2022-08-25T02:01:50;7.57;;;6.87;;
71288;SDS011;59068;52.502;9.860;2022-08-25T02:04:16;7.90;;;7.03;;
71288;SDS011;59068;52.502;9.860;2022-08-25T02:06:42;7.33;;;6.70;;
71288;SDS011;59068;52.502;9.860;2022-08-25T02:09:10;7.40;;;6.70;;
71288;SDS011;59068;52.502;9.860;2022-08-25T02:11:37;7.67;;;6.97;;
71288;SDS011;59068;52.502;9.860;2022-08-25T02:14:06;8.23;;;7.43;;
71288;SDS011;59068;52.502;9.860;2022-08-25T02:16:34;7.90;;;7.10;;
71288;SDS011;59068;52.502;9.860;2022-08-25T02:19:03;9.07;;;8.17;;
71288;SDS011;59068;52.502;9.860;2022-08-25T02:21:34;9.90;;;8.90;;
71288;SDS011;59068;52.502;9.860;2022-08-25T02:24:00;8.53;;;7.07;;
71288;SDS011;59068;52.502;9.860;2022-08-25T02:26:27;8.27;;;7.57;;
71288;SDS011;59068;52.502;9.860;2022-08-25T02:28:52;8.43;;;7.70;;
71288;SDS011;59068;52.502;9.860;2022-08-25T02:31:19;9.97;;;8.40;;
71288;SDS011;59068;52.502;9.860;2022-08-25T02:33:46;9.20;;;8.30;;
71288;SDS011;59068;52.502;9.860;2022-08-25T02:36:12;9.07;;;8.23;;
71288;SDS011;59068;52.502;9.860;2022-08-25T02:38:39;9.00;;;8.20;;
71288;SDS011;59068;52.502;9.860;2022-08-25T02:41:23;8.90;;;8.03;;
71288;SDS011;59068;52.502;9.860;2022-08-25T02:43:49;9.00;;;8.20;;
71288;SDS011;59068;52.502;9.860;2022-08-25T02:46:17;9.47;;;8.50;;
71288;SDS011;59068;52.502;9.860;2022-08-25T02:48:45;10.27;;;8.33;;
71288;SDS011;59068;52.502;9.860;2022-08-25T02:51:11;9.30;;;8.17;;
71288;SDS011;59068;52.502;9.860;2022-08-25T02:53:38;9.50;;;8.70;;
71288;SDS011;59068;52.502;9.860;2022-08-25T02:56:05;12.23;;;9.03;;
71288;SDS011;59068;52.502;9.860;2022-08-25T02:58:34;13.30;;;9.03;;
71288;SDS011;59068;52.502;9.860;2022-08-25T03:01:01;9.73;;;8.73;;
71288;SDS011;59068;52.502;9.860;2022-08-25T03:03:27;10.03;;;9.03;;
71288;SDS011;59068;52.502;9.860;2022-08-25T03:05:53;10.03;;;9.13;;
71288;SDS011;59068;52.502;9.860;2022-08-25T03:08:21;9.83;;;9.03;;
71288;SDS011;59068;52.502;9.860;2022-08-25T03:10:47;10.97;;;9.97;;
71288;SDS011;59068;52.502;9.860;2022-08-25T03:13:13;9.83;;;8.93;;
71288;SDS011;59068;52.502;9.860;2022-08-25T03:15:39;10.77;;;9.67;;
71288;SDS011;59068;52.502;9.860;2022-08-25T03:18:07;10.27;;;9.13;;
71288;SDS011;59068;52.502;9.860;2022-08-25T03:20:34;11.37;;;9.40;;
71288;SDS011;59068;52.502;9.860;2022-08-25T03:23:01;11.37;;;10.30;;
71288;SDS011;59068;52.502;9.860;2022-08-25T03:25:27;10.80;;;9.90;;
71288;SDS011;59068;52.502;9.860;2022-08-25T03:28:13;11.67;;;9.97;;
71288;SDS011;59068;52.502;9.860;2022-08-25T03:30:41;10.13;;;9.23;;
71288;SDS011;59068;52.502;9.860;2022-08-25T03:33:08;10.63;;;9.80;;
71288;SDS011;59068;52.502;9.860;2022-08-25T03:35:34;11.17;;;10.17;;
71288;SDS011;59068;52.502;9.860;2022-08-25T03:38:00;10.33;;;9.43;;
71288;SDS011;59068;52.502;9.860;2022-08-25T03:40:27;10.70;;;9.63;;
71288;SDS011;59068;52.502;9.860;2022-08-25T03:42:54;10.90;;;9.67;;
71288;SDS011;59068;52.502;9.860;2022-08-25T03:45:22;11.33;;;10.13;;
71288;SDS011;59068;52.502;9.860;2022-08-25T03:47:48;11.03;;;10.03;;
71288;SDS011;59068;52.502;9.860;2022-08-25T03:50:16;10.30;;;9.37;;
71288;SDS011;59068;52.502;9.860;2022-08-25T03:52:44;10.33;;;9.43;;
71288;SDS011;59068;52.502;9.860;2022-08-25T03:55:11;11.03;;;10.00;;
71288;SDS011;59068;52.502;9.860;2022-08-25T03:57:39;10.93;;;9.93;;
71288;SDS011;59068;52.502;9.860;2022-08-25T04:00:06;11.13;;;10.03;;
71288;SDS011;59068;52.502;9.860;2022-08-25T04:02:34;11.03;;;10.00;;
71288;SDS011;59068;52.502;9.860;2022-08-25T04:05:00;10.17;;;9.27;;
71288;SDS011;59068;52.502;9.860;2022-08-25T04:07:26;11.00;;;10.00;;
71288;SDS011;59068;52.502;9.860;2022-08-25T04:09:54;11.07;;;10.03;;
71288;SDS011;59068;52.502;9.860;2022-08-25T04:12:21;11.03;;;9.90;;
71288;SDS011;59068;52.502;9.860;2022-08-25T04:14:46;10.63;;;9.63;;
71288;SDS011;59068;52.502;9.860;2022-08-25T04:17:13;11.30;;;10.20;;
71288;SDS011;59068;52.502;9.860;2022-08-25T04:19:40;10.80;;;9.80;;
71288;SDS011;59068;52.502;9.860;2022-08-25T04:22:06;11.40;;;10.30;;
71288;SDS011;59068;52.502;9.860;2022-08-25T04:24:33;11.53;;;10.53;;
71288;SDS011;59068;52.502;9.860;2022-08-25T04:26:59;11.53;;;10.43;;
71288;SDS011;59068;52.502;9.860;2022-08-25T04:29:25;11.27;;;10.37;;
71288;SDS011;59068;52.502;9.860;2022-08-25T04:31:51;10.87;;;9.87;;
71288;SDS011;59068;52.502;9.860;2022-08-25T04:34:18;11.77;;;10.60;;
71288;SDS011;59068;52.502;9.860;2022-08-25T04:36:46;11.73;;;10.57;;
71288;SDS011;59068;52.502;9.860;2022-08-25T04:39:14;12.63;;;11.33;;
71288;SDS011;59068;52.502;9.860;2022-08-25T04:41:40;11.97;;;10.77;;
71288;SDS011;59068;52.502;9.860;2022-08-25T04:44:07;11.23;;;10.17;;
71288;SDS011;59068;52.502;9.860;2022-08-25T04:46:33;12.03;;;11.03;;
71288;SDS011;59068;52.502;9.860;2022-08-25T04:48:59;12.53;;;11.33;;
71288;SDS011;59068;52.502;9.860;2022-08-25T04:51:28;11.93;;;10.87;;
71288;SDS011;59068;52.502;9.860;2022-08-25T04:54:00;10.70;;;9.33;;
71288;SDS011;59068;52.502;9.860;2022-08-25T04:56:30;11.30;;;10.23;;
71288;SDS011;59068;52.502;9.860;2022-08-25T04:59:00;12.40;;;11.10;;
71288;SDS011;59068;52.502;9.860;2022-08-25T05:01:27;12.13;;;10.97;;
71288;SDS011;59068;52.502;9.860;2022-08-25T05:03:56;11.60;;;10.60;;
71288;SDS011;59068;52.502;9.860;2022-08-25T05:06:25;12.40;;;11.27;;
71288;SDS011;59068;52.502;9.860;2022-08-25T05:08:50;12.13;;;11.03;;
71288;SDS011;59068;52.502;9.860;2022-08-25T05:11:17;12.20;;;10.93;;
71288;SDS011;59068;52.502;9.860;2022-08-25T05:13:45;12.13;;;11.13;;
71288;SDS011;59068;52.502;9.860;2022-08-25T05:16:13;12.10;;;11.00;;
71288;SDS011;59068;52.502;9.860;2022-08-25T05:18:40;12.37;;;11.17;;
71288;SDS011;59068;52.502;9.860;2022-08-25T05:21:07;12.17;;;10.97;;
71288;SDS011;59068;52.502;9.860;2022-08-25T05:23:36;11.83;;;10.73;;
71288;SDS011;59068;52.502;9.860;2022-08-25T05:26:03;12.37;;;11.07;;
71288;SDS011;59068;52.502;9.860;2022-08-25T05:28:32;12.30;;;11.20;;
71288;SDS011;59068;52.502;9.860;2022-08-25T05:30:58;12.73;;;11.53;;
71288;SDS011;59068;52.502;9.860;2022-08-25T05:33:25;11.37;;;10.47;;
71288;SDS011;59068;52.502;9.860;2022-08-25T05:35:51;13.33;;;12.13;;
71288;SDS011;59068;52.502;9.860;2022-08-25T05:38:18;13.33;;;12.17;;
71288;SDS011;59068;52.502;9.860;2022-08-25T05:40:44;12.80;;;11.70;;
71288;SDS011;59068;52.502;9.860;2022-08-25T05:43:11;13.30;;;11.93;;
71288;SDS011;59068;52.502;9.860;2022-08-25T05:45:38;13.13;;;11.93;;
71288;SDS011;59068;52.502;9.860;2022-08-25T05:48:05;14.07;;;12.43;;
71288;SDS011;59068;52.502;9.860;2022-08-25T05:50:32;14.17;;;12.87;;
71288;SDS011;59068;52.502;9.860;2022-08-25T05:52:57;15.13;;;13.63;;
71288;SDS011;59068;52.502;9.860;2022-08-25T05:55:23;14.30;;;12.80;;
71288;SDS011;59068;52.502;9.860;2022-08-25T05:57:49;14.10;;;12.70;;
71288;SDS011;59068;52.502;9.860;2022-08-25T06:00:15;14.07;;;12.77;;
71288;SDS011;59068;52.502;9.860;2022-08-25T06:02:42;15.57;;;13.97;;
71288;SDS011;59068;52.502;9.860;2022-08-25T06:05:14;14.03;;;12.73;;
71288;SDS011;59068;52.502;9.860;2022-08-25T06:07:43;14.93;;;13.43;;
71288;SDS011;59068;52.502;9.860;2022-08-25T06:10:12;13.73;;;12.33;;
71288;SDS011;59068;52.502;9.860;2022-08-25T06:12:40;14.07;;;12.67;;
71288;SDS011;59068;52.502;9.860;2022-08-25T06:15:08;14.03;;;12.60;;
71288;SDS011;59068;52.502;9.860;2022-08-25T06:17:36;14.97;;;13.13;;
71288;SDS011;59068;52.502;9.860;2022-08-25T06:20:05;15.77;;;14.27;;
71288;SDS011;59068;52.502;9.860;2022-08-25T06:22:33;14.83;;;13.43;;
71288;SDS011;59068;52.502;9.860;2022-08-25T06:24:59;14.43;;;13.00;;
71288;SDS011;59068;52.502;9.860;2022-08-25T06:27:25;13.97;;;12.57;;
71288;SDS011;59068;52.502;9.860;2022-08-25T06:29:51;14.67;;;13.17;;
71288;SDS011;59068;52.502;9.860;2022-08-25T06:32:18;13.73;;;12.30;;
71288;SDS011;59068;52.502;9.860;2022-08-25T06:34:45;14.37;;;12.73;;
71288;SDS011;59068;52.502;9.860;2022-08-25T06:37:11;13.93;;;12.70;;
71288;SDS011;59068;52.502;9.860;2022-08-25T06:39:38;13.77;;;12.27;;
71288;SDS011;59068;52.502;9.860;2022-08-25T06:42:04;13.23;;;11.83;;
71288;SDS011;59068;52.502;9.860;2022-08-25T06:44:31;13.63;;;12.23;;
71288;SDS011;59068;52.502;9.860;2022-08-25T06:46:56;13.30;;;12.20;;
71288;SDS011;59068;52.502;9.860;2022-08-25T06:49:22;14.27;;;12.77;;
71288;SDS011;59068;52.502;9.860;2022-08-25T06:51:53;12.67;;;11.57;;
71288;SDS011;59068;52.502;9.860;2022-08-25T06:54:18;14.37;;;12.50;;
71288;SDS011;59068;52.502;9.860;2022-08-25T06:56:44;14.37;;;12.90;;
71288;SDS011;59068;52.502;9.860;2022-08-25T06:59:10;13.87;;;12.50;;
71288;SDS011;59068;52.502;9.860;2022-08-25T07:01:35;14.07;;;12.77;;
71288;SDS011;59068;52.502;9.860;2022-08-25T07:04:03;15.27;;;13.83;;
71288;SDS011;59068;52.502;9.860;2022-08-25T07:06:31;14.93;;;13.47;;
71288;SDS011;59068;52.502;9.860;2022-08-25T07:08:59;14.60;;;13.20;;
71288;SDS011;59068;52.502;9.860;2022-08-25T07:11:25;15.20;;;13.70;;
71288;SDS011;59068;52.502;9.860;2022-08-25T07:13:51;14.30;;;13.00;;
71288;SDS011;59068;52.502;9.860;2022-08-25T07:16:18;13.93;;;12.53;;
71288;SDS011;59068;52.502;9.860;2022-08-25T07:18:45;14.30;;;13.00;;
71288;SDS011;59068;52.502;9.860;2022-08-25T07:21:13;13.67;;;12.23;;
71288;SDS011;59068;52.502;9.860;2022-08-25T07:23:40;14.43;;;12.93;;
71288;SDS011;59068;52.502;9.860;2022-08-25T07:26:16;13.67;;;12.47;;
71288;SDS011;59068;52.502;9.860;2022-08-25T07:28:43;13.23;;;12.03;;
71288;SDS011;59068;52.502;9.860;2022-08-25T07:31:09;13.73;;;12.33;;
71288;SDS011;59068;52.502;9.860;2022-08-25T07:33:36;13.23;;;11.93;;
71288;SDS011;59068;52.502;9.860;2022-08-25T07:36:03;12.70;;;11.40;;
71288;SDS011;59068;52.502;9.860;2022-08-25T07:38:30;13.07;;;11.73;;
71288;SDS011;59068;52.502;9.860;2022-08-25T07:41:02;14.23;;;11.70;;
71288;SDS011;59068;52.502;9.860;2022-08-25T07:43:29;12.53;;;11.43;;
71288;SDS011;59068;52.502;9.860;2022-08-25T07:45:54;13.00;;;11.47;;
71288;SDS011;59068;52.502;9.860;2022-08-25T07:48:20;12.80;;;11.60;;
71288;SDS011;59068;52.502;9.860;2022-08-25T07:50:47;12.77;;;11.57;;
71288;SDS011;59068;52.502;9.860;2022-08-25T07:53:14;12.93;;;11.73;;
71288;SDS011;59068;52.502;9.860;2022-08-25T07:55:41;12.87;;;10.67;;
71288;SDS011;59068;52.502;9.860;2022-08-25T07:58:08;11.97;;;10.80;;
71288;SDS011;59068;52.502;9.860;2022-08-25T08:00:36;12.40;;;11.40;;
71288;SDS011;59068;52.502;9.860;2022-08-25T08:03:04;13.10;;;11.80;;
71288;SDS011;59068;52.502;9.860;2022-08-25T08:05:30;12.30;;;11.07;;
71288;SDS011;59068;52.502;9.860;2022-08-25T08:07:57;11.90;;;10.90;;
71288;SDS011;59068;52.502;9.860;2022-08-25T08:10:22;12.27;;;11.07;;
71288;SDS011;59068;52.502;9.860;2022-08-25T08:12:50;11.07;;;9.97;;
71288;SDS011;59068;52.502;9.860;2022-08-25T08:15:18;12.30;;;11.20;;
71288;SDS011;59068;52.502;9.860;2022-08-25T08:17:45;11.50;;;10.40;;
71288;SDS011;59068;52.502;9.860;2022-08-25T08:20:11;12.10;;;10.80;;
71288;SDS011;59068;52.502;9.860;2022-08-25T08:22:38;11.97;;;10.70;;
71288;SDS011;59068;52.502;9.860;2022-08-25T08:25:05;11.97;;;10.97;;
71288;SDS011;59068;52.502;9.860;2022-08-25T08:27:33;12.10;;;10.90;;
71288;SDS011;59068;52.502;9.860;2022-08-25T08:30:00;11.43;;;10.33;;
71288;SDS011;59068;52.502;9.860;2022-08-25T08:32:26;11.77;;;10.60;;
71288;SDS011;59068;52.502;9.860;2022-08-25T08:34:52;11.90;;;10.70;;
71288;SDS011;59068;52.502;9.860;2022-08-25T08:37:18;17.33;;;11.00;;
71288;SDS011;59068;52.502;9.860;2022-08-25T08:39:43;11.87;;;10.73;;
71288;SDS011;59068;52.502;9.860;2022-08-25T08:50:55;12.73;;;9.73;;
71288;SDS011;59068;52.502;9.860;2022-08-25T08:53:37;13.20;;;10.60;;
71288;SDS011;59068;52.502;9.860;2022-08-25T08:56:09;11.53;;;9.93;;
71288;SDS011;59068;52.502;9.860;2022-08-25T09:01:27;11.03;;;9.50;;
71288;SDS011;59068;52.502;9.860;2022-08-25T09:04:16;11.60;;;10.43;;
71288;SDS011;59068;52.502;9.860;2022-08-25T09:06:45;10.00;;;9.07;;
71288;SDS011;59068;52.502;9.860;2022-08-25T09:09:24;11.10;;;10.10;;
71288;SDS011;59068;52.502;9.860;2022-08-25T09:14:32;9.43;;;8.47;;
71288;SDS011;59068;52.502;9.860;2022-08-25T09:36:59;7.90;;;7.10;;
71288;SDS011;59068;52.502;9.860;2022-08-25T09:39:25;13.03;;;8.13;;
71288;SDS011;59068;52.502;9.860;2022-08-25T09:41:52;11.47;;;8.13;;
71288;SDS011;59068;52.502;9.860;2022-08-25T09:49:44;8.43;;;7.47;;
71288;SDS011;59068;52.502;9.860;2022-08-25T09:54:42;9.60;;;7.20;;
71288;SDS011;59068;52.502;9.860;2022-08-25T09:57:09;11.20;;;7.20;;
71288;SDS011;59068;52.502;9.860;2022-08-25T09:59:54;8.30;;;6.80;;
71288;SDS011;59068;52.502;9.860;2022-08-25T10:02:24;8.70;;;7.17;;
71288;SDS011;59068;52.502;9.860;2022-08-25T10:04:51;10.50;;;7.13;;
71288;SDS011;59068;52.502;9.860;2022-08-25T10:10:15;8.60;;;6.63;;
71288;SDS011;59068;52.502;9.860;2022-08-25T10:12:43;10.40;;;6.97;;
71288;SDS011;59068;52.502;9.860;2022-08-25T10:18:15;7.33;;;6.63;;
71288;SDS011;59068;52.502;9.860;2022-08-25T10:23:35;7.57;;;6.90;;
71288;SDS011;59068;52.502;9.860;2022-08-25T10:26:04;8.17;;;6.93;;
71288;SDS011;59068;52.502;9.860;2022-08-25T10:38:57;8.63;;;6.70;;
71288;SDS011;59068;52.502;9.860;2022-08-25T10:44:36;8.33;;;6.70;;
71288;SDS011;59068;52.502;9.860;2022-08-25T10:50:17;8.17;;;6.90;;
71288;SDS011;59068;52.502;9.860;2022-08-25T11:04:04;8.83;;;6.57;;
71288;SDS011;59068;52.502;9.860;2022-08-25T11:06:55;7.63;;;6.20;;
71288;SDS011;59068;52.502;9.860;2022-08-25T11:09:29;9.83;;;6.30;;
71288;SDS011;59068;52.502;9.860;2022-08-25T11:11:59;7.67;;;6.40;;
71288;SDS011;59068;52.502;9.860;2022-08-25T11:17:30;7.53;;;6.40;;
71288;SDS011;59068;52.502;9.860;2022-08-25T11:20:06;7.53;;;6.73;;
71288;SDS011;59068;52.502;9.860;2022-08-25T11:22:44;8.23;;;6.87;;
71288;SDS011;59068;52.502;9.860;2022-08-25T11:25:25;7.43;;;6.47;;
71288;SDS011;59068;52.502;9.860;2022-08-25T11:30:48;7.90;;;6.63;;
71288;SDS011;59068;52.502;9.860;2022-08-25T11:33:17;7.80;;;7.00;;
71288;SDS011;59068;52.502;9.860;2022-08-25T11:35:46;8.03;;;7.10;;
71288;SDS011;59068;52.502;9.860;2022-08-25T11:46:49;7.90;;;6.20;;
71288;SDS011;59068;52.502;9.860;2022-08-25T11:55:28;8.67;;;7.20;;
71288;SDS011;59068;52.502;9.860;2022-08-25T12:01:02;7.40;;;6.57;;
71288;SDS011;59068;52.502;9.860;2022-08-25T12:08:50;10.03;;;6.60;;
71288;SDS011;59068;52.502;9.860;2022-08-25T12:17:00;6.57;;;6.00;;
71288;SDS011;59068;52.502;9.860;2022-08-25T12:33:53;6.30;;;5.73;;
71288;SDS011;59068;52.502;9.860;2022-08-25T12:36:28;7.13;;;6.30;;
71288;SDS011;59068;52.502;9.860;2022-08-25T12:39:07;6.40;;;5.57;;
71288;SDS011;59068;52.502;9.860;2022-08-25T12:41:49;9.03;;;6.20;;
71288;SDS011;59068;52.502;9.860;2022-08-25T12:44:34;7.87;;;6.03;;
71288;SDS011;59068;52.502;9.860;2022-08-25T12:47:11;6.83;;;6.17;;
71288;SDS011;59068;52.502;9.860;2022-08-25T12:53:06;8.77;;;6.03;;
71288;SDS011;59068;52.502;9.860;2022-08-25T12:55:50;10.10;;;6.10;;
71288;SDS011;59068;52.502;9.860;2022-08-25T12:58:17;7.67;;;6.03;;
71288;SDS011;59068;52.502;9.860;2022-08-25T13:12:01;7.27;;;5.90;;
71288;SDS011;59068;52.502;9.860;2022-08-25T13:14:39;7.60;;;6.57;;
71288;SDS011;59068;52.502;9.860;2022-08-25T13:17:07;9.57;;;5.77;;
71288;SDS011;59068;52.502;9.860;2022-08-25T13:19:35;6.63;;;5.53;;
71288;SDS011;59068;52.502;9.860;2022-08-25T13:22:10;7.40;;;5.43;;
71288;SDS011;59068;52.502;9.860;2022-08-25T13:24:39;6.47;;;5.87;;
71288;SDS011;59068;52.502;9.860;2022-08-25T13:27:16;6.13;;;5.37;;
71288;SDS011;59068;52.502;9.860;2022-08-25T13:29:54;7.47;;;5.63;;
71288;SDS011;59068;52.502;9.860;2022-08-25T13:32:26;6.57;;;5.93;;
71288;SDS011;59068;52.502;9.860;2022-08-25T13:35:19;12.00;;;6.60;;
71288;SDS011;59068;52.502;9.860;2022-08-25T13:37:44;6.67;;;5.83;;
71288;SDS011;59068;52.502;9.860;2022-08-25T13:43:03;9.40;;;6.00;;
71288;SDS011;59068;52.502;9.860;2022-08-25T13:45:37;5.70;;;5.20;;
71288;SDS011;59068;52.502;9.860;2022-08-25T13:48:07;8.30;;;5.90;;
71288;SDS011;59068;52.502;9.860;2022-08-25T13:50:35;6.10;;;5.50;;
71288;SDS011;59068;52.502;9.860;2022-08-25T13:55:49;8.17;;;5.70;;
71288;SDS011;59068;52.502;9.860;2022-08-25T13:58:20;6.70;;;6.00;;
71288;SDS011;59068;52.502;9.860;2022-08-25T14:03:49;6.67;;;5.87;;
71288;SDS011;59068;52.502;9.860;2022-08-25T14:09:03;5.53;;;5.03;;
71288;SDS011;59068;52.502;9.860;2022-08-25T14:11:45;6.63;;;5.60;;
71288;SDS011;59068;52.502;9.860;2022-08-25T14:14:34;6.70;;;5.67;;
71288;SDS011;59068;52.502;9.860;2022-08-25T14:19:44;7.83;;;6.00;;
71288;SDS011;59068;52.502;9.860;2022-08-25T14:22:12;6.20;;;5.60;;
71288;SDS011;59068;52.502;9.860;2022-08-25T14:24:38;8.50;;;5.87;;
71288;SDS011;59068;52.502;9.860;2022-08-25T14:27:04;6.50;;;5.90;;
71288;SDS011;59068;52.502;9.860;2022-08-25T14:29:31;6.20;;;5.60;;
71288;SDS011;59068;52.502;9.860;2022-08-25T14:31:57;7.40;;;5.87;;
71288;SDS011;59068;52.502;9.860;2022-08-25T14:34:26;5.40;;;4.90;;
71288;SDS011;59068;52.502;9.860;2022-08-25T14:36:55;5.63;;;4.97;;
71288;SDS011;59068;52.502;9.860;2022-08-25T14:39:22;7.47;;;5.47;;
71288;SDS011;59068;52.502;9.860;2022-08-25T14:41:48;5.77;;;5.17;;
71288;SDS011;59068;52.502;9.860;2022-08-25T14:44:15;6.47;;;5.40;;
71288;SDS011;59068;52.502;9.860;2022-08-25T14:46:45;7.70;;;5.57;;
71288;SDS011;59068;52.502;9.860;2022-08-25T14:49:18;9.10;;;5.40;;
71288;SDS011;59068;52.502;9.860;2022-08-25T14:51:47;7.27;;;5.63;;
71288;SDS011;59068;52.502;9.860;2022-08-25T14:54:14;7.67;;;5.60;;
71288;SDS011;59068;52.502;9.860;2022-08-25T14:56:44;6.07;;;5.40;;
71288;SDS011;59068;52.502;9.860;2022-08-25T14:59:11;7.30;;;4.77;;
71288;SDS011;59068;52.502;9.860;2022-08-25T15:01:38;6.07;;;5.37;;
71288;SDS011;59068;52.502;9.860;2022-08-25T15:04:15;5.70;;;5.20;;
71288;SDS011;59068;52.502;9.860;2022-08-25T15:06:44;8.30;;;5.80;;
71288;SDS011;59068;52.502;9.860;2022-08-25T15:09:12;6.53;;;5.73;;
71288;SDS011;59068;52.502;9.860;2022-08-25T15:11:46;6.77;;;5.70;;
71288;SDS011;59068;52.502;9.860;2022-08-25T15:14:17;9.83;;;5.93;;
71288;SDS011;59068;52.502;9.860;2022-08-25T15:19:27;7.13;;;5.27;;
71288;SDS011;59068;52.502;9.860;2022-08-25T15:21:54;5.77;;;5.20;;
71288;SDS011;59068;52.502;9.860;2022-08-25T15:24:20;9.20;;;6.33;;
71288;SDS011;59068;52.502;9.860;2022-08-25T15:26:52;7.87;;;5.03;;
71288;SDS011;59068;52.502;9.860;2022-08-25T15:29:19;7.07;;;5.10;;
71288;SDS011;59068;52.502;9.860;2022-08-25T15:31:46;5.63;;;5.10;;
71288;SDS011;59068;52.502;9.860;2022-08-25T15:34:13;7.80;;;5.13;;
71288;SDS011;59068;52.502;9.860;2022-08-25T15:36:40;5.77;;;5.20;;
71288;SDS011;59068;52.502;9.860;2022-08-25T15:39:07;6.37;;;5.43;;
71288;SDS011;59068;52.502;9.860;2022-08-25T15:41:34;7.70;;;5.30;;
71288;SDS011;59068;52.502;9.860;2022-08-25T15:44:03;7.77;;;5.37;;
71288;SDS011;59068;52.502;9.860;2022-08-25T15:46:31;9.07;;;5.10;;
71288;SDS011;59068;52.502;9.860;2022-08-25T15:48:58;7.33;;;5.60;;
71288;SDS011;59068;52.502;9.860;2022-08-25T15:51:25;7.17;;;5.30;;
71288;SDS011;59068;52.502;9.860;2022-08-25T15:53:52;5.97;;;5.47;;
71288;SDS011;59068;52.502;9.860;2022-08-25T15:56:19;6.07;;;5.20;;
71288;SDS011;59068;52.502;9.860;2022-08-25T15:58:45;5.80;;;4.80;;
71288;SDS011;59068;52.502;9.860;2022-08-25T16:01:17;7.03;;;5.53;;
71288;SDS011;59068;52.502;9.860;2022-08-25T16:03:44;6.00;;;5.40;;
71288;SDS011;59068;52.502;9.860;2022-08-25T16:06:10;8.67;;;5.67;;
71288;SDS011;59068;52.502;9.860;2022-08-25T16:08:37;6.90;;;5.50;;
71288;SDS011;59068;52.502;9.860;2022-08-25T16:11:03;5.97;;;5.40;;
71288;SDS011;59068;52.502;9.860;2022-08-25T16:13:30;8.83;;;5.73;;
71288;SDS011;59068;52.502;9.860;2022-08-25T16:15:58;5.87;;;4.90;;
71288;SDS011;59068;52.502;9.860;2022-08-25T16:18:24;6.30;;;5.43;;
71288;SDS011;59068;52.502;9.860;2022-08-25T16:20:51;6.33;;;5.03;;
71288;SDS011;59068;52.502;9.860;2022-08-25T16:23:18;7.73;;;5.37;;
71288;SDS011;59068;52.502;9.860;2022-08-25T16:25:45;7.47;;;5.03;;
71288;SDS011;59068;52.502;9.860;2022-08-25T16:28:12;5.80;;;5.20;;
71288;SDS011;59068;52.502;9.860;2022-08-25T16:30:38;5.63;;;5.13;;
71288;SDS011;59068;52.502;9.860;2022-08-25T16:33:05;8.53;;;5.47;;
71288;SDS011;59068;52.502;9.860;2022-08-25T16:35:33;8.17;;;5.27;;
71288;SDS011;59068;52.502;9.860;2022-08-25T16:37:59;5.77;;;4.97;;
71288;SDS011;59068;52.502;9.860;2022-08-25T16:40:27;6.73;;;5.13;;
71288;SDS011;59068;52.502;9.860;2022-08-25T16:42:53;7.10;;;5.07;;
71288;SDS011;59068;52.502;9.860;2022-08-25T16:45:20;6.43;;;5.40;;
71288;SDS011;59068;52.502;9.860;2022-08-25T16:47:47;7.10;;;5.27;;
71288;SDS011;59068;52.502;9.860;2022-08-25T16:50:13;7.13;;;5.37;;
71288;SDS011;59068;52.502;9.860;2022-08-25T16:52:40;9.27;;;5.10;;
71288;SDS011;59068;52.502;9.860;2022-08-25T16:55:26;5.57;;;5.03;;
71288;SDS011;59068;52.502;9.860;2022-08-25T16:57:55;6.60;;;5.40;;
71288;SDS011;59068;52.502;9.860;2022-08-25T17:00:23;11.03;;;5.37;;
71288;SDS011;59068;52.502;9.860;2022-08-25T17:02:54;5.90;;;5.30;;
71288;SDS011;59068;52.502;9.860;2022-08-25T17:05:22;7.27;;;5.43;;
71288;SDS011;59068;52.502;9.860;2022-08-25T17:07:49;9.70;;;5.90;;
71288;SDS011;59068;52.502;9.860;2022-08-25T17:10:35;7.83;;;5.30;;
71288;SDS011;59068;52.502;9.860;2022-08-25T17:13:01;8.53;;;5.53;;
71288;SDS011;59068;52.502;9.860;2022-08-25T17:15:29;7.03;;;5.23;;
71288;SDS011;59068;52.502;9.860;2022-08-25T17:17:55;5.80;;;5.20;;
71288;SDS011;59068;52.502;9.860;2022-08-25T17:20:21;8.47;;;5.60;;
71288;SDS011;59068;52.502;9.860;2022-08-25T17:22:49;5.93;;;5.07;;
71288;SDS011;59068;52.502;9.860;2022-08-25T17:25:14;7.23;;;5.23;;
71288;SDS011;59068;52.502;9.860;2022-08-25T17:27:40;6.40;;;5.30;;